Time;durP1;ratioP1;P1;durP2;ratioP2;P2;SDS_P1;SDS_P2;PMS_P1;PMS_P2;Temp;Humidity;BMP_temperature;BMP_pressure;BME280_temperature;BME280_humidity;BME280_pressure;Samples;Min_cycle;Max_cycle;Signal;HPM_P1;HPM_P2
2021/06/19 00:00:05;;;;;;;8.25;6.03;;;;;;;20.20;69.53;99607.56;4997068;28;20054;-63
2021/06/19 00:02:38;;;;;;;10.73;6.50;;;;;;;20.16;69.49;99606.81;4997025;28;20531;-63
2021/06/19 00:05:12;;;;;;;8.43;6.18;;;;;;;20.10;69.64;99606.25;4996993;28;20046;-63
2021/06/19 00:07:44;;;;;;;8.25;5.60;;;;;;;20.04;69.67;99605.59;4997215;28;20408;-64
2021/06/19 00:10:20;;;;;;;6.78;5.35;;;;;;;20.03;69.70;99611.66;4996912;28;20567;-64
2021/06/19 00:12:54;;;;;;;9.50;5.93;;;;;;;19.96;69.70;99610.22;4997094;28;20480;-64
2021/06/19 00:15:27;;;;;;;8.20;5.90;;;;;;;19.87;69.98;99605.41;4996598;28;20047;-65
2021/06/19 00:17:59;;;;;;;8.07;5.40;;;;;;;19.93;70.05;99605.19;4996732;28;20504;-65
2021/06/19 00:20:32;;;;;;;8.77;6.68;;;;;;;19.94;70.08;99612.03;4996735;28;20058;-63
2021/06/19 00:23:07;;;;;;;8.60;5.70;;;;;;;19.90;70.05;99601.84;4996494;28;20109;-64
2021/06/19 00:25:41;;;;;;;9.02;5.90;;;;;;;19.90;70.33;99605.28;4996884;28;20125;-64
2021/06/19 00:28:13;;;;;;;8.15;5.63;;;;;;;19.77;70.23;99593.72;4996587;28;20517;-65
2021/06/19 00:30:46;;;;;;;8.57;6.00;;;;;;;19.74;70.50;99604.22;4996519;28;20125;-65
2021/06/19 00:33:19;;;;;;;10.43;5.63;;;;;;;19.80;70.70;99609.16;4996465;28;20054;-64
2021/06/19 00:35:48;;;;;;;7.47;5.57;;;;;;;19.81;70.62;99605.66;4996497;28;20060;-64
2021/06/19 00:38:20;;;;;;;8.32;5.43;;;;;;;19.81;70.52;99605.66;4996252;28;20125;-64
2021/06/19 00:40:55;;;;;;;8.32;5.88;;;;;;;19.73;70.82;99599.94;4996609;28;20441;-65
2021/06/19 00:43:27;;;;;;;8.13;5.30;;;;;;;19.75;70.92;99605.91;4996116;28;20061;-63
2021/06/19 00:46:00;;;;;;;13.70;6.45;;;;;;;19.78;70.87;99608.38;4996221;28;20129;-65
2021/06/19 00:48:32;;;;;;;8.43;5.43;;;;;;;19.78;70.73;99595.41;4996098;28;20109;-63
2021/06/19 00:51:05;;;;;;;8.63;6.00;;;;;;;19.81;70.44;99603.09;4996466;28;20552;-64
2021/06/19 00:53:35;;;;;;;8.05;5.78;;;;;;;19.75;70.56;99597.28;4995224;28;20074;-65
2021/06/19 00:56:10;;;;;;;8.98;5.43;;;;;;;19.63;70.80;99596.00;4995787;28;20130;-65
2021/06/19 00:58:43;;;;;;;8.38;5.82;;;;;;;19.58;70.91;99592.75;4996175;28;20081;-64
2021/06/19 01:01:16;;;;;;;7.75;5.85;;;;;;;19.60;70.93;99590.97;4978627;28;20058;-63
2021/06/19 01:03:51;;;;;;;10.45;5.65;;;;;;;19.66;70.81;99595.91;4996119;28;20109;-63
2021/06/19 01:06:24;;;;;;;8.80;5.53;;;;;;;19.69;70.73;99594.94;4996164;28;20550;-65
2021/06/19 01:08:56;;;;;;;7.82;5.53;;;;;;;19.71;70.60;99596.56;4995616;28;20049;-64
2021/06/19 01:11:31;;;;;;;10.63;6.00;;;;;;;19.70;70.60;99596.63;4995792;28;20128;-63
2021/06/19 01:14:05;;;;;;;9.30;6.00;;;;;;;19.64;70.82;99602.03;4995712;28;20074;-64
2021/06/19 01:16:35;;;;;;;7.85;5.95;;;;;;;19.64;70.88;99600.31;4978302;28;20098;-64
2021/06/19 01:19:07;;;;;;;7.60;6.18;;;;;;;19.55;70.98;99599.81;4995489;28;20061;-64
2021/06/19 01:21:39;;;;;;;8.10;5.95;;;;;;;19.41;71.28;99595.16;4995565;28;20066;-64
2021/06/19 01:24:13;;;;;;;;;;;;;;;19.45;71.54;99601.91;4995882;28;20050;-64
2021/06/19 01:26:45;;;;;;;7.13;5.60;;;;;;;19.48;71.29;99604.38;4995501;28;19928;-64
2021/06/19 01:29:17;;;;;;;9.05;5.75;;;;;;;19.43;71.62;99593.38;4995477;28;20137;-65
2021/06/19 01:31:47;;;;;;;11.48;6.18;;;;;;;19.49;71.31;99598.28;4995368;28;20583;-64
2021/06/19 01:34:19;;;;;;;8.32;5.45;;;;;;;19.54;71.12;99598.09;4995293;28;20062;-65
2021/06/19 01:36:55;;;;;;;9.10;5.97;;;;;;;19.54;71.11;99606.72;4994979;28;20057;-63
2021/06/19 01:39:28;;;;;;;9.23;6.05;;;;;;;19.48;71.11;99606.97;4995204;28;20058;-65
2021/06/19 01:42:01;;;;;;;9.82;5.75;;;;;;;19.35;71.16;99610.88;4995192;28;20104;-65
2021/06/19 01:44:35;;;;;;;9.60;5.40;;;;;;;19.32;71.69;99605.81;4995153;28;20054;-65
2021/06/19 01:47:08;;;;;;;11.23;5.75;;;;;;;19.24;71.92;99602.69;4995312;28;20081;-65
2021/06/19 01:49:41;;;;;;;7.95;5.10;;;;;;;19.18;72.12;99597.72;4995004;28;20053;-64
2021/06/19 01:52:14;;;;;;;11.43;5.95;;;;;;;19.09;72.32;99608.41;4995331;28;20057;-64
2021/06/19 01:54:46;;;;;;;9.88;6.28;;;;;;;18.94;72.69;99602.03;4994086;28;20085;-64
2021/06/19 01:57:20;;;;;;;9.43;6.13;;;;;;;18.92;72.86;99600.41;4994943;28;20077;-64
2021/06/19 02:00:01;;;;;;;8.68;6.00;;;;;;;19.00;73.27;99606.16;4994867;28;20050;-64
2021/06/19 02:02:36;;;;;;;8.45;5.78;;;;;;;19.06;73.39;99603.34;4994832;28;20053;-64
2021/06/19 02:05:11;;;;;;;10.25;5.60;;;;;;;19.15;72.88;99600.41;4994360;28;20057;-64
2021/06/19 02:07:59;;;;;;;8.07;5.82;;;;;;;19.13;72.90;99607.41;4994775;28;20109;-64
2021/06/19 02:10:31;;;;;;;8.82;5.70;;;;;;;19.10;73.16;99610.13;4994675;28;20084;-64
2021/06/19 02:13:07;;;;;;;8.80;5.63;;;;;;;19.09;73.11;99614.44;4994717;28;20485;-64
2021/06/19 02:15:42;;;;;;;10.68;6.47;;;;;;;18.99;73.26;99607.06;4994512;28;20046;-64
2021/06/19 02:18:15;;;;;;;7.78;5.82;;;;;;;18.97;73.46;99604.53;4994652;28;20054;-64
2021/06/19 02:20:52;;;;;;;10.65;6.57;;;;;;;19.01;73.59;99597.50;4994590;28;20558;-64
2021/06/19 02:23:26;;;;;;;6.85;5.68;;;;;;;19.01;73.66;99613.00;4994885;28;20062;-66
2021/06/19 02:25:59;;;;;;;8.85;6.35;;;;;;;18.98;73.66;99601.03;4994614;28;20404;-65
2021/06/19 02:28:33;;;;;;;9.80;6.82;;;;;;;18.98;73.69;99611.38;4994516;28;20088;-64
2021/06/19 02:31:09;;;;;;;8.80;6.60;;;;;;;18.87;73.81;99603.16;4994484;28;20085;-66
2021/06/19 02:33:43;;;;;;;9.48;6.15;;;;;;;18.94;74.01;99608.97;4994460;28;20400;-66
2021/06/19 02:36:15;;;;;;;9.88;6.22;;;;;;;18.92;74.17;99600.41;4994269;28;20061;-64
2021/06/19 02:38:48;;;;;;;9.15;6.57;;;;;;;18.98;74.13;99613.16;4994928;28;20133;-64
2021/06/19 02:41:21;;;;;;;10.32;6.03;;;;;;;19.06;73.95;99613.69;4994315;28;20050;-64
2021/06/19 02:43:54;;;;;;;7.35;5.70;;;;;;;19.16;73.54;99613.31;4994299;28;20057;-64
2021/06/19 02:46:27;;;;;;;8.35;6.18;;;;;;;19.22;73.32;99609.63;4994010;28;20069;-64
2021/06/19 02:49:00;;;;;;;8.05;5.82;;;;;;;19.22;73.05;99612.22;4994344;28;20101;-63
2021/06/19 02:51:32;;;;;;;8.93;5.90;;;;;;;19.21;72.81;99623.50;4994249;28;20121;-64
2021/06/19 02:54:05;;;;;;;8.55;5.95;;;;;;;19.22;72.66;99609.63;4993457;28;21766;-65
2021/06/19 02:56:37;;;;;;;12.68;5.78;;;;;;;19.23;72.40;99606.16;4994277;28;20050;-64
2021/06/19 02:59:11;;;;;;;9.73;5.82;;;;;;;19.19;72.49;99609.78;4994100;28;20074;-65
2021/06/19 03:01:40;;;;;;;8.25;5.60;;;;;;;19.18;72.15;99603.75;4994200;28;20043;-64
2021/06/19 03:04:15;;;;;;;12.02;6.10;;;;;;;19.15;72.28;99608.19;4994154;28;20492;-65
2021/06/19 03:06:45;;;;;;;8.77;6.35;;;;;;;19.07;72.50;99602.47;4994202;28;20056;-64
2021/06/19 03:09:17;;;;;;;10.75;6.32;;;;;;;19.15;72.56;99608.19;4994180;28;20050;-64
2021/06/19 03:11:47;;;;;;;10.68;6.65;;;;;;;19.12;72.81;99609.13;4994092;28;20064;-65
2021/06/19 03:14:21;;;;;;;11.32;6.50;;;;;;;19.11;73.08;99611.78;4994080;28;20126;-63
2021/06/19 03:16:50;;;;;;;9.23;6.55;;;;;;;19.12;72.94;99603.13;4994211;28;20046;-64
2021/06/19 03:19:22;;;;;;;10.30;6.53;;;;;;;19.15;73.19;99613.34;4997800;28;20507;-64
2021/06/19 03:22:00;;;;;;;9.57;6.38;;;;;;;19.18;73.11;99618.44;4997777;28;20058;-64
2021/06/19 03:24:38;;;;;;;11.27;7.10;;;;;;;19.23;73.38;99616.50;4997566;28;20051;-65
2021/06/19 03:27:08;;;;;;;10.65;6.80;;;;;;;19.35;73.18;99613.47;4997685;28;20054;-63
2021/06/19 03:29:43;;;;;;;10.25;6.95;;;;;;;19.46;73.08;99607.94;4997650;28;20053;-65
2021/06/19 03:32:16;;;;;;;10.27;7.30;;;;;;;19.55;72.78;99611.03;4997506;28;20127;-64
2021/06/19 03:34:48;;;;;;;10.35;6.90;;;;;;;19.59;72.59;99614.31;4997578;28;20077;-63
2021/06/19 03:37:20;;;;;;;10.23;6.93;;;;;;;19.63;72.26;99610.69;4997246;28;20600;-65
2021/06/19 03:39:53;;;;;;;8.35;6.57;;;;;;;19.71;72.25;99606.94;4997668;28;20050;-64
2021/06/19 03:42:25;;;;;;;9.23;6.97;;;;;;;19.76;71.93;99612.78;4997335;28;20400;-65
2021/06/19 03:45:00;;;;;;;9.45;6.35;;;;;;;19.73;72.06;99612.03;4997993;28;20054;-65
2021/06/19 03:47:32;;;;;;;8.32;6.70;;;;;;;19.74;72.11;99609.41;4997073;28;20046;-63
2021/06/19 03:50:06;;;;;;;9.45;6.28;;;;;;;19.79;72.21;99606.63;4997331;28;20619;-64
2021/06/19 03:52:37;;;;;;;8.32;6.40;;;;;;;19.85;72.07;99607.22;4997239;28;20053;-65
2021/06/19 03:55:11;;;;;;;8.60;6.22;;;;;;;19.97;71.75;99604.16;4996280;28;20079;-65
2021/06/19 03:57:44;;;;;;;8.95;6.68;;;;;;;20.00;71.60;99600.59;4996900;28;20476;-63
2021/06/19 04:00:17;;;;;;;10.55;6.80;;;;;;;20.19;71.30;99611.91;4997125;28;20129;-65
2021/06/19 04:02:50;;;;;;;8.18;6.55;;;;;;;20.33;70.98;99608.75;4997086;28;20050;-65
2021/06/19 04:05:23;;;;;;;8.63;5.63;;;;;;;20.48;70.42;99616.75;4997292;28;20062;-66
2021/06/19 04:07:55;;;;;;;8.60;6.47;;;;;;;20.55;70.13;99606.97;4996921;28;20046;-64
2021/06/19 04:10:28;;;;;;;8.20;6.25;;;;;;;20.69;69.85;99617.59;4996932;28;20069;-65
2021/06/19 04:13:00;;;;;;;10.30;5.78;;;;;;;20.80;69.35;99615.41;4997102;28;20081;-64
2021/06/19 04:15:34;;;;;;;8.35;6.35;;;;;;;20.91;69.03;99623.53;4996805;28;20058;-64
2021/06/19 04:18:08;;;;;;;9.73;6.15;;;;;;;20.95;68.78;99617.31;4996524;28;20057;-64
2021/06/19 04:23:42;;;;;;;7.95;6.13;;;;;;;21.09;68.76;99617.56;4269919;28;20058;-62
2021/06/19 04:26:15;;;;;;;10.93;6.38;;;;;;;21.20;68.51;99617.09;4977208;28;20134;-62
2021/06/19 04:28:50;;;;;;;8.77;6.25;;;;;;;21.38;68.31;99616.25;4976845;28;20121;-62
2021/06/19 04:31:25;;;;;;;10.00;5.72;;;;;;;21.59;67.81;99617.03;4977066;28;20047;-63
2021/06/19 04:33:57;;;;;;;13.25;7.35;;;;;;;21.78;67.50;99616.09;4976807;28;20125;-62
2021/06/19 04:36:33;;;;;;;10.85;6.45;;;;;;;22.05;67.21;99616.56;4976659;28;20050;-63
2021/06/19 04:39:05;;;;;;;10.52;6.38;;;;;;;22.26;66.55;99620.72;4977000;28;20059;-63
2021/06/19 04:41:48;;;;;;;8.25;6.22;;;;;;;22.47;66.14;99624.84;4976980;28;20444;-63
2021/06/19 04:44:42;;;;;;;7.22;5.85;;;;;;;22.72;65.54;99615.84;4976864;28;20058;-62
2021/06/19 04:47:14;;;;;;;9.15;6.00;;;;;;;22.91;64.68;99620.03;4977073;28;20053;-63
2021/06/19 04:49:46;;;;;;;10.63;6.15;;;;;;;23.06;64.01;99623.59;4976809;28;20074;-63
2021/06/19 04:52:16;;;;;;;9.32;5.85;;;;;;;23.20;63.56;99626.31;4976736;28;20138;-63
2021/06/19 04:54:49;;;;;;;7.95;6.45;;;;;;;23.32;63.06;99629.06;4976733;28;20061;-63
2021/06/19 04:57:18;;;;;;;8.15;6.18;;;;;;;23.43;62.60;99627.69;4977264;28;20082;-63
2021/06/19 04:59:51;;;;;;;10.43;6.70;;;;;;;23.55;62.34;99617.47;4976578;28;20053;-63
2021/06/19 05:02:22;;;;;;;7.35;5.90;;;;;;;23.60;61.36;99615.44;4976893;28;20055;-62
2021/06/19 05:04:54;;;;;;;8.70;5.90;;;;;;;23.70;61.25;99627.06;4976499;28;20074;-62
2021/06/19 05:07:24;;;;;;;8.50;6.18;;;;;;;23.83;60.59;99629.78;4976793;28;20059;-62
2021/06/19 05:09:56;;;;;;;;;;;;;;;23.93;60.17;99625.75;4977616;28;20052;-63
2021/06/19 05:12:25;;;;;;;9.70;6.40;;;;;;;24.02;59.93;99628.69;4958936;28;20390;-62
2021/06/19 05:14:58;;;;;;;8.63;5.55;;;;;;;24.07;59.77;99625.03;4976229;28;20047;-63
2021/06/19 05:17:29;;;;;;;8.70;5.95;;;;;;;24.18;59.54;99623.50;4975944;28;20051;-63
2021/06/19 05:20:02;;;;;;;8.75;6.15;;;;;;;24.31;58.98;99629.66;4976199;28;20065;-62
2021/06/19 05:22:35;;;;;;;7.72;5.55;;;;;;;24.42;58.67;99623.84;4975314;28;20050;-62
2021/06/19 05:25:06;;;;;;;7.90;5.47;;;;;;;24.49;58.38;99631.22;4976415;28;20101;-63
2021/06/19 05:27:48;;;;;;;9.52;5.90;;;;;;;24.50;57.85;99624.22;4976140;28;20047;-63
2021/06/19 05:30:18;;;;;;;8.23;5.90;;;;;;;24.64;57.48;99626.88;4976256;28;20073;-63
2021/06/19 05:32:56;;;;;;;8.98;5.57;;;;;;;24.75;57.16;99614.03;4976041;28;20469;-63
2021/06/19 05:35:25;;;;;;;7.63;5.68;;;;;;;24.86;57.06;99611.63;4975863;28;20516;-63
2021/06/19 05:37:55;;;;;;;9.05;5.88;;;;;;;24.90;56.81;99610.53;4975511;28;20051;-63
2021/06/19 05:40:27;;;;;;;7.40;5.65;;;;;;;25.02;56.86;99607.19;4974985;28;20051;-63
2021/06/19 05:43:00;;;;;;;11.38;6.13;;;;;;;25.13;56.80;99609.97;4974986;28;20134;-62
2021/06/19 05:45:32;;;;;;;7.82;5.80;;;;;;;25.19;56.51;99603.53;4975706;28;20054;-63
2021/06/19 05:48:07;;;;;;;8.43;5.63;;;;;;;25.30;56.03;99609.75;4975463;28;20078;-63
2021/06/19 05:50:40;;;;;;;10.65;5.95;;;;;;;25.37;55.83;99619.81;4975644;28;20141;-63
2021/06/19 05:53:12;;;;;;;7.35;5.50;;;;;;;25.48;55.44;99625.28;4975602;28;20117;-63
2021/06/19 05:55:44;;;;;;;8.32;5.90;;;;;;;25.63;55.58;99624.28;4975587;28;20057;-62
2021/06/19 05:58:17;;;;;;;6.43;5.40;;;;;;;25.70;55.36;99612.50;4975259;28;20055;-64
2021/06/19 06:00:49;;;;;;;8.20;5.65;;;;;;;25.80;55.05;99610.97;4975338;28;20061;-63
2021/06/19 06:03:27;;;;;;;8.23;6.03;;;;;;;25.92;54.88;99604.97;4975739;28;20081;-63
2021/06/19 06:05:59;;;;;;;9.88;6.22;;;;;;;26.03;54.74;99607.75;4975488;28;20066;-63
2021/06/19 06:08:32;;;;;;;8.85;6.30;;;;;;;26.12;54.71;99611.56;4975410;28;20057;-64
2021/06/19 06:11:04;;;;;;;7.68;6.03;;;;;;;26.25;54.21;99617.69;4975318;28;20062;-63
2021/06/19 06:13:37;;;;;;;7.45;6.22;;;;;;;26.40;54.39;99611.41;4975295;28;20062;-63
2021/06/19 06:16:09;;;;;;;9.00;6.70;;;;;;;26.51;54.55;99614.97;4975422;28;20142;-63
2021/06/19 06:18:44;;;;;;;11.63;6.38;;;;;;;26.63;54.76;99603.66;4975043;28;20510;-63
2021/06/19 06:21:17;;;;;;;8.80;6.68;;;;;;;26.71;54.00;99604.94;4975204;28;20564;-64
2021/06/19 06:23:49;;;;;;;9.23;6.47;;;;;;;26.75;53.33;99598.56;4974321;28;20082;-63
2021/06/19 06:26:23;;;;;;;8.48;6.20;;;;;;;26.84;53.58;99605.81;4975109;28;20102;-63
2021/06/19 06:28:52;;;;;;;9.40;5.90;;;;;;;26.93;53.53;99599.94;4975017;28;20102;-62
2021/06/19 06:31:25;;;;;;;8.25;6.43;;;;;;;27.01;52.73;99600.25;4975080;28;20085;-63
2021/06/19 06:33:58;;;;;;;8.10;6.45;;;;;;;27.04;52.97;99600.06;4975067;28;20058;-62
2021/06/19 06:36:31;;;;;;;7.22;5.75;;;;;;;27.07;52.99;99594.56;4975797;28;20043;-63
2021/06/19 06:39:07;;;;;;;8.50;5.95;;;;;;;27.23;52.69;99587.34;4974713;28;20097;-63
2021/06/19 06:41:39;;;;;;;8.60;6.40;;;;;;;27.33;52.60;99583.09;4975509;28;20058;-63
2021/06/19 06:44:12;;;;;;;7.97;5.95;;;;;;;27.47;52.17;99584.78;4974967;28;20137;-63
2021/06/19 06:46:41;;;;;;;9.60;6.13;;;;;;;27.58;51.97;99582.22;4974888;28;20496;-63
2021/06/19 06:49:17;;;;;;;6.95;5.90;;;;;;;27.55;51.75;99582.44;4974860;28;20047;-62
2021/06/19 06:51:46;;;;;;;9.15;6.10;;;;;;;27.57;51.33;99581.38;4976530;28;20062;-63
2021/06/19 06:54:20;;;;;;;8.35;6.28;;;;;;;27.75;51.71;99580.06;4978858;28;20062;-62
2021/06/19 06:56:52;;;;;;;8.73;6.50;;;;;;;27.87;51.04;99573.91;4978769;28;20055;-62
2021/06/19 06:59:22;;;;;;;8.00;5.32;;;;;;;28.05;50.85;99581.41;4978388;28;20061;-63
2021/06/19 07:01:54;;;;;;;8.20;6.25;;;;;;;28.17;50.28;99586.56;4978511;28;20047;-63
2021/06/19 07:04:25;;;;;;;7.30;5.75;;;;;;;28.21;50.83;99581.94;4977184;28;20078;-65
2021/06/19 07:06:54;;;;;;;7.53;5.90;;;;;;;28.36;50.91;99586.06;4977936;28;20054;-63
2021/06/19 07:09:24;;;;;;;7.80;5.03;;;;;;;28.41;49.78;99583.94;4976045;28;20495;-64
2021/06/19 07:11:53;;;;;;;;;;;;;;;28.48;48.81;99579.88;4976532;28;20078;-63
2021/06/19 07:14:25;;;;;;;8.73;5.25;;;;;;;28.58;48.78;99580.03;4975055;28;20467;-64
2021/06/19 07:16:55;;;;;;;9.00;5.85;;;;;;;28.62;48.17;99587.56;4970425;28;20561;-64
2021/06/19 07:19:25;;;;;;;7.78;5.60;;;;;;;28.70;47.84;99577.31;4973263;28;20053;-64
2021/06/19 07:21:55;;;;;;;6.50;5.05;;;;;;;28.79;47.60;99570.53;4975475;28;20081;-64
2021/06/19 07:24:24;;;;;;;7.60;5.60;;;;;;;29.02;47.94;99569.56;4975787;28;20050;-63
2021/06/19 07:26:57;;;;;;;7.85;5.75;;;;;;;29.16;47.72;99567.50;4976982;28;20050;-63
2021/06/19 07:29:30;;;;;;;7.22;5.15;;;;;;;29.17;46.79;99553.44;4975988;28;20055;-63
2021/06/19 07:32:00;;;;;;;8.00;5.57;;;;;;;29.30;47.06;99563.00;4977242;28;20045;-63
2021/06/19 07:34:31;;;;;;;6.40;5.40;;;;;;;29.36;47.26;99558.09;4974195;28;20121;-63
2021/06/19 07:37:00;;;;;;;8.70;5.63;;;;;;;29.42;46.97;99559.41;4973760;28;20097;-65
2021/06/19 07:39:30;;;;;;;8.65;5.35;;;;;;;29.48;46.85;99561.53;4977413;28;20106;-64
2021/06/19 07:42:02;;;;;;;6.57;5.10;;;;;;;29.57;46.85;99560.78;4970631;28;20054;-64
2021/06/19 07:44:32;;;;;;;7.53;5.05;;;;;;;29.78;46.69;99559.06;4975418;28;20047;-64
2021/06/19 07:47:02;;;;;;;6.85;5.10;;;;;;;29.88;45.38;99565.25;4976714;28;20058;-63
2021/06/19 07:49:33;;;;;;;7.22;5.38;;;;;;;29.91;45.25;99564.16;4974021;28;20043;-63
2021/06/19 07:52:03;;;;;;;7.18;5.18;;;;;;;29.97;45.26;99559.22;4975639;28;20489;-64
2021/06/19 07:54:36;;;;;;;6.97;4.88;;;;;;;30.10;43.91;99559.88;4975599;28;20066;-64
2021/06/19 07:57:07;;;;;;;6.40;5.07;;;;;;;30.19;43.28;99553.84;4975404;28;20474;-64
2021/06/19 07:59:44;;;;;;;7.07;5.13;;;;;;;30.35;43.54;99556.88;4977408;28;20065;-64
2021/06/19 08:02:13;;;;;;;6.35;4.70;;;;;;;30.54;42.83;99553.56;4977641;28;20077;-64
2021/06/19 08:04:47;;;;;;;9.02;5.32;;;;;;;30.78;43.01;99554.09;4976761;28;20043;-64
2021/06/19 08:07:18;;;;;;;7.50;5.07;;;;;;;30.99;43.32;99560.19;4977367;28;20069;-64
2021/06/19 08:09:52;;;;;;;7.10;5.00;;;;;;;31.09;42.77;99550.50;4977314;28;20093;-64
2021/06/19 08:12:21;;;;;;;5.75;4.82;;;;;;;31.01;42.32;99552.97;4977491;28;20054;-63
2021/06/19 08:14:54;;;;;;;6.25;5.40;;;;;;;30.95;42.16;99547.41;4977381;28;20055;-64
2021/06/19 08:17:25;;;;;;;8.18;5.03;;;;;;;31.01;42.58;99546.84;4977353;28;20047;-63
2021/06/19 08:19:56;;;;;;;6.07;4.80;;;;;;;31.01;43.25;99533.66;4977148;28;20106;-64
2021/06/19 08:22:26;;;;;;;7.68;5.07;;;;;;;31.12;42.99;99544.13;4975360;28;20059;-64
2021/06/19 08:24:58;;;;;;;6.35;5.20;;;;;;;31.21;42.35;99535.41;4977219;28;20054;-64
2021/06/19 08:27:32;;;;;;;6.38;5.28;;;;;;;31.03;42.41;99544.91;4976899;28;20106;-64
2021/06/19 08:30:01;;;;;;;7.65;5.32;;;;;;;30.95;42.77;99544.75;4977127;28;20070;-63
2021/06/19 08:32:33;;;;;;;;;;;;;;;30.94;42.92;99545.72;4977233;28;20047;-63
2021/06/19 08:35:12;;;;;;;8.80;5.03;;;;;;;31.03;42.16;99545.75;4976955;28;19928;-64
2021/06/19 08:37:43;;;;;;;6.93;4.80;;;;;;;31.13;43.17;99540.50;4976953;28;20548;-63
2021/06/19 08:40:16;;;;;;;6.88;5.70;;;;;;;31.27;44.14;99542.75;4976532;28;20051;-64
2021/06/19 08:42:46;;;;;;;7.10;5.43;;;;;;;31.19;43.48;99539.97;4976820;28;20065;-64
2021/06/19 08:45:18;;;;;;;6.50;5.47;;;;;;;31.12;43.82;99542.31;4976781;28;20050;-65
2021/06/19 08:47:48;;;;;;;9.90;5.55;;;;;;;31.12;44.21;99536.22;4976748;28;20054;-64
2021/06/19 08:50:23;;;;;;;5.65;4.75;;;;;;;31.24;42.79;99527.22;4976898;28;20484;-64
2021/06/19 08:52:55;;;;;;;6.53;5.40;;;;;;;31.25;43.41;99528.88;4976557;28;20055;-64
2021/06/19 08:55:30;;;;;;;6.97;5.38;;;;;;;31.53;44.30;99517.56;4976692;28;20051;-65
2021/06/19 08:58:01;;;;;;;6.45;5.00;;;;;;;31.57;43.21;99523.41;4976653;28;20106;-65
2021/06/19 09:00:30;;;;;;;6.15;5.00;;;;;;;31.58;44.13;99525.91;4976534;28;20101;-66
2021/06/19 09:03:00;;;;;;;6.30;5.28;;;;;;;31.44;44.13;99518.38;4976516;28;20049;-64
2021/06/19 09:05:31;;;;;;;7.28;5.30;;;;;;;31.47;44.17;99533.13;4976437;28;20054;-64
2021/06/19 09:08:28;;;;;;;6.88;5.13;;;;;;;31.41;43.98;99529.19;4959439;28;20047;-65
2021/06/19 09:11:01;;;;;;;7.15;5.30;;;;;;;31.22;44.15;99518.59;4976332;28;20054;-65
2021/06/19 09:13:33;;;;;;;5.47;4.45;;;;;;;31.39;44.51;99528.47;4976856;28;20078;-66
2021/06/19 09:16:06;;;;;;;5.93;5.05;;;;;;;31.52;43.84;99521.19;4975526;28;20101;-64
2021/06/19 09:18:38;;;;;;;5.72;4.63;;;;;;;31.87;43.52;99525.06;4976225;28;20065;-65
2021/06/19 09:21:12;;;;;;;7.93;4.68;;;;;;;31.86;43.58;99528.69;4976204;28;20456;-66
2021/06/19 09:23:48;;;;;;;7.15;4.57;;;;;;;31.93;42.93;99529.81;4975323;28;20047;-65
2021/06/19 09:26:19;;;;;;;6.38;5.18;;;;;;;31.73;42.09;99535.09;4975916;28;20101;-66
2021/06/19 09:29:04;;;;;;;5.57;4.60;;;;;;;31.69;42.31;99528.44;4976063;28;20054;-65
2021/06/19 09:31:52;;;;;;;5.95;4.47;;;;;;;31.76;42.91;99529.53;4976025;28;20492;-66
2021/06/19 09:34:24;;;;;;;8.60;4.57;;;;;;;31.99;42.74;99534.53;4975659;28;20513;-65
2021/06/19 09:37:03;;;;;;;5.60;4.60;;;;;;;31.98;41.55;99532.88;4975705;28;20050;-65
2021/06/19 09:39:38;;;;;;;5.88;4.80;;;;;;;31.94;41.97;99527.00;4975696;28;20122;-66
2021/06/19 09:42:10;;;;;;;6.15;4.28;;;;;;;32.00;41.16;99530.94;4975788;28;20496;-66
2021/06/19 09:44:46;;;;;;;5.85;4.75;;;;;;;31.82;41.23;99527.31;4976026;28;20063;-64
2021/06/19 09:47:17;;;;;;;5.65;4.57;;;;;;;31.92;41.76;99528.97;4975700;28;20555;-66
2021/06/19 09:49:51;;;;;;;5.65;4.65;;;;;;;31.89;41.40;99517.88;4975680;28;20133;-65
2021/06/19 09:52:31;;;;;;;8.43;4.47;;;;;;;32.02;40.41;99523.69;4975588;28;20054;-65
2021/06/19 09:55:11;;;;;;;6.90;4.75;;;;;;;32.11;40.63;99517.56;4975905;28;20055;-65
2021/06/19 09:57:45;;;;;;;6.18;4.20;;;;;;;32.35;39.55;99513.50;4975827;28;20057;-65
2021/06/19 10:00:16;;;;;;;5.78;4.57;;;;;;;32.23;39.68;99498.78;4975569;28;20062;-64
2021/06/19 10:02:47;;;;;;;5.20;4.18;;;;;;;32.29;38.88;99518.53;4975303;28;20070;-65
2021/06/19 10:05:19;;;;;;;7.07;4.20;;;;;;;32.36;39.55;99509.88;4975240;28;20054;-65
2021/06/19 10:07:50;;;;;;;5.93;4.20;;;;;;;32.46;39.20;99509.84;4975435;28;20138;-66
2021/06/19 10:10:23;;;;;;;7.18;4.13;;;;;;;32.56;37.71;99510.69;4975351;28;20051;-65
2021/06/19 10:12:53;;;;;;;4.60;3.70;;;;;;;32.30;37.03;99501.69;4975342;28;20051;-66
2021/06/19 10:15:27;;;;;;;5.22;3.80;;;;;;;32.55;36.91;99508.19;4975087;28;20051;-64
2021/06/19 10:17:57;;;;;;;9.40;3.47;;;;;;;32.63;36.53;99508.31;4975230;28;20046;-65
2021/06/19 10:20:30;;;;;;;6.05;3.97;;;;;;;32.67;37.53;99507.03;4975341;28;20531;-65
2021/06/19 10:23:01;;;;;;;5.25;3.65;;;;;;;32.80;37.64;99504.91;4974859;28;20066;-65
2021/06/19 10:25:34;;;;;;;5.10;4.07;;;;;;;32.91;37.33;99494.94;4975191;28;20054;-65
2021/06/19 10:28:08;;;;;;;4.90;3.60;;;;;;;32.76;38.92;99487.63;4975415;28;20058;-65
2021/06/19 10:30:38;;;;;;;6.90;4.28;;;;;;;32.71;38.80;99503.94;4975070;28;20118;-65
2021/06/19 10:33:25;;;;;;;6.68;3.70;;;;;;;32.41;38.54;99499.72;4975102;28;20055;-66
2021/06/19 10:36:01;;;;;;;5.35;4.10;;;;;;;32.55;38.55;99497.59;4974716;28;20055;-65
2021/06/19 10:38:47;;;;;;;5.25;4.05;;;;;;;32.53;38.71;99497.75;4975035;28;20070;-65
2021/06/19 10:41:22;;;;;;;5.90;4.45;;;;;;;32.72;38.01;99496.84;4974898;28;20051;-65
2021/06/19 10:43:52;;;;;;;8.20;3.85;;;;;;;32.81;38.05;99495.97;4974666;28;20458;-66
2021/06/19 10:46:31;;;;;;;5.30;4.03;;;;;;;32.73;37.43;99494.03;4975134;28;20082;-64
2021/06/19 10:49:38;;;;;;;5.88;3.90;;;;;;;32.33;37.21;99427.41;4974925;28;20051;-65
2021/06/19 10:52:25;;;;;;;7.75;4.10;;;;;;;32.94;37.74;99491.19;4899914;29;20079;-65
2021/06/19 10:55:20;;;;;;;6.03;4.28;;;;;;;33.18;37.71;99488.00;4915478;29;20049;-64
2021/06/19 10:57:53;;;;;;;4.55;3.88;;;;;;;33.42;37.04;99493.53;4915599;29;20052;-65
2021/06/19 11:00:27;;;;;;;4.85;3.80;;;;;;;33.29;36.92;99490.41;4915288;29;20075;-66
2021/06/19 11:02:58;;;;;;;5.82;3.63;;;;;;;33.36;36.83;99483.53;4915369;29;20522;-66
2021/06/19 11:05:52;;;;;;;5.63;3.40;;;;;;;33.31;36.43;99483.16;4915391;29;20052;-67
2021/06/19 11:08:24;;;;;;;6.95;3.92;;;;;;;33.09;36.62;99485.25;4915304;29;20052;-65
2021/06/19 11:11:01;;;;;;;5.63;3.67;;;;;;;33.13;37.12;99472.56;4915298;29;20062;-65
2021/06/19 11:13:49;;;;;;;4.50;3.70;;;;;;;33.01;36.14;99482.50;4915285;29;20063;-63
2021/06/19 11:16:48;;;;;;;4.32;3.42;;;;;;;32.86;36.77;99478.69;4915258;29;20140;-65
2021/06/19 11:19:40;;;;;;;5.40;3.83;;;;;;;33.17;37.23;99473.09;4915480;29;20060;-66
2021/06/19 11:22:28;;;;;;;5.43;4.22;;;;;;;33.30;36.59;99469.13;4924827;28;20507;-65
2021/06/19 11:25:15;;;;;;;4.53;3.60;;;;;;;33.59;36.32;99467.09;4974363;28;20099;-65
2021/06/19 11:28:08;;;;;;;4.88;3.88;;;;;;;32.99;35.61;99378.63;4974548;28;20137;-65
2021/06/19 11:30:58;;;;;;;5.05;3.58;;;;;;;33.86;36.66;99463.50;4970889;28;20081;-65
2021/06/19 11:33:45;;;;;;;6.35;3.95;;;;;;;33.83;36.24;99466.47;4974524;28;20122;-65
2021/06/19 11:36:39;;;;;;;5.90;3.97;;;;;;;33.70;35.26;99460.72;4974458;28;20059;-67
2021/06/19 11:39:17;;;;;;;5.90;3.78;;;;;;;33.62;35.36;99466.78;4976382;28;20125;-65
2021/06/19 11:41:49;;;;;;;5.07;3.60;;;;;;;33.70;35.11;99458.91;4977997;28;20050;-64
2021/06/19 11:44:31;;;;;;;5.63;3.78;;;;;;;33.79;34.74;99462.44;4977982;28;20515;-64
2021/06/19 11:47:08;;;;;;;4.88;3.67;;;;;;;33.50;34.06;99448.59;4977979;28;20137;-65
2021/06/19 11:49:43;;;;;;;4.68;3.55;;;;;;;33.55;34.99;99449.00;4977895;28;20047;-66
2021/06/19 11:52:18;;;;;;;4.80;3.92;;;;;;;33.48;35.22;99442.63;4977842;28;20216;-66
2021/06/19 11:54:54;;;;;;;5.65;3.70;;;;;;;33.66;35.42;99440.84;4978094;28;20110;-65
2021/06/19 11:57:30;;;;;;;5.53;3.95;;;;;;;33.68;35.36;99433.56;4977702;28;20061;-65
2021/06/19 12:00:09;;;;;;;4.53;3.65;;;;;;;33.74;34.49;99427.66;4977767;28;20074;-64
2021/06/19 12:02:43;;;;;;;4.97;3.65;;;;;;;33.91;34.22;99429.44;4976534;28;20062;-65
2021/06/19 12:05:15;;;;;;;5.75;3.90;;;;;;;33.89;35.20;99431.41;4977400;28;20496;-65
2021/06/19 12:07:52;;;;;;;6.43;3.92;;;;;;;33.95;34.21;99428.16;4977895;28;20051;-66